Time;durP1;ratioP1;P1;durP2;ratioP2;P2;SDS_P1;SDS_P2;PMS_P1;PMS_P2;Temp;Humidity;BMP_temperature;BMP_pressure;BME280_temperature;BME280_humidity;BME280_pressure;Samples;Min_cycle;Max_cycle;Signal;HPM_P1;HPM_P2
2023/03/13 00:02:19;;;;;;;;;;;;;;;8.71;100.00;100228.13;5000150;28;19987;-81
2023/03/13 00:04:44;;;;;;;;;;;;;;;8.60;100.00;100226.31;5019308;28;19995;-83
2023/03/13 00:07:10;;;;;;;;;;;;;;;8.44;100.00;100223.97;5019480;28;20024;-84
2023/03/13 00:09:35;;;;;;;;;;;;;;;8.64;100.00;100209.03;5008135;28;19922;-80
2023/03/13 00:12:00;;;;;;;;;;;;;;;8.84;100.00;100199.41;4986186;28;19993;-80
2023/03/13 00:14:25;;;;;;;;;;;;;;;8.57;100.00;100197.13;5006046;28;19964;-81
2023/03/13 00:16:50;;;;;;;;;;;;;;;8.59;100.00;100199.66;5001088;28;20019;-83
2023/03/13 00:19:16;;;;;;;;;;;;;;;8.57;100.00;100199.81;4989311;28;20376;-83
2023/03/13 00:21:41;;;;;;;;;;;;;;;8.82;100.00;100181.78;4982843;28;19921;-85
2023/03/13 00:24:06;;;;;;;;;;;;;;;8.66;100.00;100176.81;4999710;28;19928;-82
2023/03/13 00:26:32;;;;;;;;;;;;;;;8.82;100.00;100169.22;5000902;28;20363;-84
2023/03/13 00:28:57;;;;;;;;;;;;;;;8.64;100.00;100184.94;4994896;28;19921;-79
2023/03/13 00:31:23;;;;;;;;;;;;;;;8.63;100.00;100159.16;5002052;28;20349;-81
2023/03/13 00:33:50;;;;;;;;;;;;;;;8.53;100.00;100167.06;5003817;28;19929;-84
2023/03/13 00:36:26;;;;;;;;;;;;;;;8.24;100.00;100169.38;5018167;28;19925;-83
2023/03/13 00:38:51;;;;;;;;;;;;;;;8.38;100.00;100165.59;4998865;28;20470;-83
2023/03/13 00:41:18;;;;;;;;;;;;;;;8.18;100.00;100161.81;4994586;28;19924;-83
2023/03/13 00:43:44;;;;;;;;;;;;;;;8.22;100.00;100161.44;4981742;28;19925;-82
2023/03/13 00:46:09;;;;;;;;;;;;;;;8.18;100.00;100148.44;5014983;28;19927;-82
2023/03/13 00:48:35;;;;;;;;;;;;;;;8.23;100.00;100143.59;4982592;28;19928;-83
2023/03/13 00:51:00;;;;;;;;;;;;;;;8.25;100.00;100144.31;4986165;28;19917;-80
2023/03/13 00:53:26;;;;;;;;;;;;;;;8.26;100.00;100149.53;4998378;28;19921;-79
2023/03/13 00:55:58;;;;;;;;;;;;;;;8.26;100.00;100122.78;5006122;28;19921;-82
2023/03/13 00:58:23;;;;;;;;;;;;;;;8.31;100.00;100108.22;5015523;28;19960;-80
2023/03/13 01:00:48;;;;;;;;;;;;;;;8.35;100.00;100105.16;5019858;28;19921;-78
2023/03/13 01:03:14;;;;;;;;;;;;;;;8.34;100.00;100105.28;5002435;28;20840;-82
2023/03/13 01:05:39;;;;;;;;;;;;;;;8.35;100.00;100104.31;4984782;28;20304;-81
2023/03/13 01:08:04;;;;;;;;;;;;;;;8.44;100.00;100111.63;5004150;28;19928;-84
2023/03/13 01:10:30;;;;;;;;;;;;;;;8.32;100.00;100080.50;4990677;28;19927;-84
2023/03/13 01:12:55;;;;;;;;;;;;;;;8.29;100.00;100086.94;5002200;28;19953;-82
2023/03/13 01:15:20;;;;;;;;;;;;;;;8.25;100.00;100061.41;4983878;28;19917;-81
2023/03/13 01:17:45;;;;;;;;;;;;;;;8.29;100.00;100072.72;5019344;28;19921;-81
2023/03/13 01:20:11;;;;;;;;;;;;;;;8.38;100.00;100067.47;4985145;28;20390;-81
2023/03/13 01:22:36;;;;;;;;;;;;;;;8.39;100.00;100052.28;4984418;28;20360;-80
2023/03/13 01:25:01;;;;;;;;;;;;;;;8.45;100.00;100051.78;4983291;28;20280;-80
2023/03/13 01:27:27;;;;;;;;;;;;;;;8.40;100.00;100044.13;4996366;28;19921;-79
2023/03/13 01:29:52;;;;;;;;;;;;;;;8.49;100.00;100029.16;4998026;28;20370;-82
2023/03/13 01:32:18;;;;;;;;;;;;;;;8.44;100.00;100033.16;4986068;28;19916;-80
2023/03/13 01:34:43;;;;;;;;;;;;;;;8.48;100.00;100022.13;4981534;28;19929;-79
2023/03/13 01:37:08;;;;;;;;;;;;;;;8.41;100.00;100031.59;4999556;28;19922;-79
2023/03/13 01:39:33;;;;;;;;;;;;;;;8.60;100.00;100027.44;4996940;28;19971;-80
2023/03/13 01:41:58;;;;;;;;;;;;;;;8.58;100.00;100030.25;4984813;28;19927;-79
2023/03/13 01:44:24;;;;;;;;;;;;;;;8.61;100.00;100016.59;4981114;28;19929;-81
2023/03/13 01:46:49;;;;;;;;;;;;;;;8.57;100.00;100017.84;4999415;28;19925;-80
2023/03/13 01:49:15;;;;;;;;;;;;;;;8.59;100.00;100005.19;4984976;28;20031;-80
2023/03/13 01:51:40;;;;;;;;;;;;;;;8.72;100.00;100001.50;4998334;28;19971;-80
2023/03/13 01:54:07;;;;;;;;;;;;;;;8.76;100.00;99979.69;4998790;28;19925;-79
2023/03/13 01:56:34;;;;;;;;;;;;;;;8.61;100.00;99991.69;4980156;28;19925;-78
2023/03/13 01:58:59;;;;;;;;;;;;;;;8.76;100.00;99952.09;4982369;28;19979;-80
2023/03/13 02:01:24;;;;;;;;;;;;;;;8.71;100.00;99965.84;5000176;28;19917;-80
2023/03/13 02:03:49;;;;;;;;;;;;;;;8.87;100.00;99952.03;4984230;28;19969;-80
2023/03/13 02:06:15;;;;;;;;;;;;;;;8.98;100.00;99954.63;4995802;28;19936;-80
2023/03/13 02:08:41;;;;;;;;;;;;;;;8.92;100.00;99957.00;4986102;28;19932;-81
2023/03/13 02:11:13;;;;;;;;;;;;;;;9.03;100.00;99951.53;4980180;28;20059;-79
2023/03/13 02:13:38;;;;;;;;;;;;;;;9.10;100.00;99938.50;4997543;28;19929;-80
2023/03/13 02:16:03;;;;;;;;;;;;;;;9.37;100.00;99919.16;4984868;28;20010;-81
2023/03/13 02:18:28;;;;;;;;;;;;;;;9.31;100.00;99917.03;4996409;28;20701;-81
2023/03/13 02:20:55;;;;;;;;;;;;;;;9.40;100.00;99918.06;4982934;28;19925;-82
2023/03/13 02:23:26;;;;;;;;;;;;;;;9.50;100.00;99913.59;4993732;28;19987;-80
2023/03/13 02:25:52;;;;;;;;;;;;;;;9.54;100.00;99912.34;4989632;28;19921;-82
2023/03/13 02:28:19;;;;;;;;;;;;;;;9.63;100.00;99899.09;4998149;28;19971;-81
2023/03/13 02:30:44;;;;;;;;;;;;;;;9.59;100.00;99885.13;4984372;28;19972;-80
2023/03/13 02:33:12;;;;;;;;;;;;;;;9.82;100.00;99877.72;4992605;28;20019;-77
2023/03/13 02:35:37;;;;;;;;;;;;;;;9.63;100.00;99856.22;4992843;28;19921;-81
2023/03/13 02:38:03;;;;;;;;;;;;;;;9.67;100.00;99865.66;4998868;28;19932;-77
2023/03/13 02:40:33;;;;;;;;;;;;;;;9.75;100.00;99845.25;4993578;28;19921;-79
2023/03/13 02:42:59;;;;;;;;;;;;;;;9.81;100.00;99854.56;4995177;28;19921;-81
2023/03/13 02:45:24;;;;;;;;;;;;;;;9.63;100.00;99850.88;4984205;28;19921;-83
2023/03/13 02:47:49;;;;;;;;;;;;;;;9.58;100.00;99862.84;4995445;28;20052;-83
2023/03/13 02:50:15;;;;;;;;;;;;;;;9.80;100.00;99858.22;4984137;28;19921;-81
2023/03/13 02:52:41;;;;;;;;;;;;;;;9.83;100.00;99855.28;4990378;28;19979;-84
2023/03/13 02:55:08;;;;;;;;;;;;;;;9.94;100.00;99858.78;4985190;28;19923;-82
2023/03/13 02:57:34;;;;;;;;;;;;;;;9.92;100.00;99850.06;4997316;28;19956;-82
2023/03/13 02:59:59;;;;;;;;;;;;;;;9.95;100.00;99861.34;4978037;28;19972;-78
2023/03/13 03:02:24;;;;;;;;;;;;;;;9.92;100.00;99852.75;4999539;28;19984;-83
2023/03/13 03:04:50;;;;;;;;;;;;;;;9.97;100.00;99845.09;4983022;28;19960;-81
2023/03/13 03:07:15;;;;;;;;;;;;;;;10.00;100.00;99853.75;4979900;28;19917;-80
2023/03/13 03:09:40;;;;;;;;;;;;;;;10.24;100.00;99849.78;4980277;28;19925;-77
2023/03/13 03:12:06;;;;;;;;;;;;;;;10.23;100.00;99845.41;4993697;28;19923;-80
2023/03/13 03:14:31;;;;;;;;;;;;;;;10.27;100.00;99856.69;4996436;28;20031;-80
2023/03/13 03:16:56;;;;;;;;;;;;;;;10.23;100.00;99855.28;4981756;28;19924;-83
2023/03/13 03:19:21;;;;;;;;;;;;;;;10.23;100.00;99858.81;4996850;28;19920;-80
2023/03/13 03:21:48;;;;;;;;;;;;;;;10.25;100.00;99846.13;4981008;28;19921;-81
2023/03/13 03:24:13;;;;;;;;;;;;;;;10.23;100.00;99863.31;4978756;28;19928;-78
2023/03/13 03:26:38;;;;;;;;;;;;;;;10.23;100.00;99848.09;4991316;28;20292;-81
2023/03/13 03:29:04;;;;;;;;;;;;;;;10.28;100.00;99859.25;4982926;28;19925;-81
2023/03/13 03:31:29;;;;;;;;;;;;;;;10.30;100.00;99846.56;4994677;28;20262;-81
2023/03/13 03:33:55;;;;;;;;;;;;;;;10.33;100.00;99845.41;4986187;28;19929;-82
2023/03/13 03:36:21;;;;;;;;;;;;;;;10.30;100.00;99840.31;4993675;28;20008;-81
2023/03/13 03:38:46;;;;;;;;;;;;;;;10.35;100.00;99846.94;4982471;28;19921;-79
2023/03/13 03:41:12;;;;;;;;;;;;;;;10.30;100.00;99840.31;4994617;28;20048;-82
2023/03/13 03:43:38;;;;;;;;;;;;;;;10.32;100.00;99846.41;4984430;28;19935;-78
2023/03/13 03:46:03;;;;;;;;;;;;;;;10.42;100.00;99841.03;4982369;28;19929;-81
2023/03/13 03:48:28;;;;;;;;;;;;;;;10.41;100.00;99833.97;4996630;28;19917;-81
2023/03/13 03:50:54;;;;;;;;;;;;;;;10.53;100.00;99823.94;4999725;28;19987;-79
2023/03/13 03:53:19;;;;;;;;;;;;;;;10.50;100.00;99835.81;4985113;28;19929;-81
2023/03/13 03:55:44;;;;;;;;;;;;;;;10.54;100.00;99826.50;4985134;28;19921;-81
2023/03/13 03:58:09;;;;;;;;;;;;;;;10.53;100.00;99832.84;4999677;28;19960;-81
2023/03/13 04:00:34;;;;;;;;;;;;;;;10.67;100.00;99841.44;4979972;28;20009;-80
2023/03/13 04:03:00;;;;;;;;;;;;;;;10.48;100.00;99838.63;4998733;28;19972;-80
2023/03/13 04:05:25;;;;;;;;;;;;;;;10.61;100.00;99829.44;4985317;28;19928;-79
2023/03/13 04:07:50;;;;;;;;;;;;;;;10.73;100.00;99828.25;4998138;28;20291;-81
2023/03/13 04:10:15;;;;;;;;;;;;;;;10.63;100.00;99827.47;4996670;28;19925;-80
2023/03/13 04:12:41;;;;;;;;;;;;;;;10.66;100.00;99816.44;4997298;28;19925;-79
2023/03/13 04:15:06;;;;;;;;;;;;;;;10.79;100.00;99810.75;4997133;28;19940;-81
2023/03/13 04:17:32;;;;;;;;;;;;;;;10.83;100.00;99817.53;4981623;28;19990;-80
2023/03/13 04:19:57;;;;;;;;;;;;;;;10.91;100.00;99800.66;4981984;28;19925;-80
2023/03/13 04:22:22;;;;;;;;;;;;;;;10.95;100.00;99813.66;4980332;28;19921;-80
2023/03/13 04:24:47;;;;;;;;;;;;;;;11.00;100.00;99818.56;4995564;28;19964;-79
2023/03/13 04:27:13;;;;;;;;;;;;;;;11.02;100.00;99807.69;4997765;28;20008;-79
2023/03/13 04:29:38;;;;;;;;;;;;;;;11.00;100.00;99789.03;4985571;28;19928;-80
2023/03/13 04:32:03;;;;;;;;;;;;;;;11.09;100.00;99803.44;4987812;28;19928;-81
2023/03/13 04:34:28;;;;;;;;;;;;;;;11.07;100.00;99800.88;4997870;28;19921;-80
2023/03/13 04:36:54;;;;;;;;;;;;;;;11.09;100.00;99798.88;4996940;28;19925;-81
2023/03/13 04:39:23;;;;;;;;;;;;;;;11.12;100.00;99778.97;4996402;28;20636;-78
2023/03/13 04:41:49;;;;;;;;;;;;;;;11.09;100.00;99771.19;4982411;28;20192;-83
2023/03/13 04:44:14;;;;;;;;;;;;;;;11.10;100.00;99775.56;4998583;28;19925;-80
2023/03/13 04:46:39;;;;;;;;;;;;;;;11.16;100.00;99760.69;4978664;28;19928;-80
2023/03/13 04:49:04;;;;;;;;;;;;;;;11.19;100.00;99766.59;4982886;28;19928;-82
2023/03/13 04:51:30;;;;;;;;;;;;;;;11.25;100.00;99757.94;4982259;28;20296;-79
2023/03/13 04:53:55;;;;;;;;;;;;;;;11.23;100.00;99751.88;4982180;28;20390;-80
2023/03/13 04:56:24;;;;;;;;;;;;;;;11.32;100.00;99757.34;4989423;28;19988;-81
2023/03/13 04:58:49;;;;;;;;;;;;;;;11.33;100.00;99753.66;4986599;28;20371;-82
2023/03/13 05:01:15;;;;;;;;;;;;;;;11.41;100.00;99740.28;4981673;28;19921;-76
2023/03/13 05:03:40;;;;;;;;;;;;;;;11.40;100.00;99743.97;5018582;28;20303;-80
2023/03/13 05:06:05;;;;;;;;;;;;;;;11.41;100.00;99745.66;4987130;28;20011;-81
2023/03/13 05:08:30;;;;;;;;;;;;;;;11.54;100.00;99743.47;4999051;28;19953;-80
2023/03/13 05:10:56;;;;;;;;;;;;;;;11.51;100.00;99732.19;4983477;28;19920;-80
2023/03/13 05:13:21;;;;;;;;;;;;;;;11.60;100.00;99733.94;5019609;28;19925;-80
2023/03/13 05:15:46;;;;;;;;;;;;;;;11.66;100.00;99725.25;4983263;28;19984;-81
2023/03/13 05:18:12;;;;;;;;;;;;;;;11.61;100.00;99719.50;4988538;28;19948;-80
2023/03/13 05:20:37;;;;;;;;;;;;;;;11.64;100.00;99734.50;4986645;28;19921;-80
2023/03/13 05:23:02;;;;;;;;;;;;;;;11.61;100.00;99724.88;5001449;28;19925;-80
2023/03/13 05:25:27;;;;;;;;;;;;;;;11.72;100.00;99715.72;4982293;28;19990;-80
2023/03/13 05:27:53;;;;;;;;;;;;;;;11.79;100.00;99719.50;4996949;28;19921;-83
2023/03/13 05:30:18;;;;;;;;;;;;;;;11.74;100.00;99721.78;4972759;28;20015;-81
2023/03/13 05:32:44;;;;;;;;;;;;;;;11.82;100.00;99712.94;4983093;28;20243;-80
2023/03/13 05:35:09;;;;;;;;;;;;;;;11.87;100.00;99713.34;4997934;28;19921;-80
2023/03/13 05:37:34;;;;;;;;;;;;;;;11.90;100.00;99712.19;4981576;28;20364;-81
2023/03/13 05:39:59;;;;;;;;;;;;;;;11.89;100.00;99719.41;5000050;28;20445;-82
2023/03/13 05:42:25;;;;;;;;;;;;;;;11.86;100.00;99714.31;4980490;28;19974;-80
2023/03/13 05:44:50;;;;;;;;;;;;;;;11.96;100.00;99715.09;4983071;28;19990;-80
2023/03/13 05:47:17;;;;;;;;;;;;;;;11.92;100.00;99723.66;4996798;28;20395;-78
2023/03/13 05:49:42;;;;;;;;;;;;;;;11.91;100.00;99712.03;4987375;28;20391;-81
2023/03/13 05:52:07;;;;;;;;;;;;;;;11.80;100.00;99693.44;4993053;28;19925;-81
2023/03/13 05:54:33;;;;;;;;;;;;;;;12.06;100.00;99730.31;4998513;28;19929;-82
2023/03/13 05:56:58;;;;;;;;;;;;;;;12.02;100.00;99712.81;4994038;28;20067;-82
2023/03/13 05:59:23;;;;;;;;;;;;;;;12.07;100.00;99722.09;5009309;28;19921;-79
2023/03/13 06:01:48;;;;;;;;;;;;;;;12.06;100.00;99704.28;5005212;28;20355;-80
2023/03/13 06:04:14;;;;;;;;;;;;;;;12.05;100.00;99710.66;4997053;28;20372;-79
2023/03/13 06:06:39;;;;;;;;;;;;;;;12.08;100.00;99707.66;5000781;28;19937;-79
2023/03/13 06:09:04;;;;;;;;;;;;;;;12.10;100.00;99705.66;5024965;28;19976;-82
2023/03/13 06:11:30;;;;;;;;;;;;;;;12.18;100.00;99699.47;5005936;28;19925;-79
2023/03/13 06:13:55;;;;;;;;;;;;;;;12.26;100.00;99704.06;5007613;28;20304;-81
2023/03/13 06:16:20;;;;;;;;;;;;;;;12.33;100.00;99699.72;5003021;28;19956;-79
2023/03/13 06:18:45;;;;;;;;;;;;;;;12.17;100.00;99711.22;5020255;28;19963;-82
2023/03/13 06:21:11;;;;;;;;;;;;;;;12.25;100.00;99710.44;5005587;28;19921;-80
2023/03/13 06:23:36;;;;;;;;;;;;;;;12.21;100.00;99699.16;5007436;28;19971;-79
2023/03/13 06:26:01;;;;;;;;;;;;;;;12.21;100.00;99698.28;4990081;28;20027;-81
2023/03/13 06:28:26;;;;;;;;;;;;;;;12.23;100.00;99697.16;5007282;28;19927;-82
2023/03/13 06:30:51;;;;;;;;;;;;;;;12.26;100.00;99687.91;5001627;28;19921;-81
2023/03/13 06:33:17;;;;;;;;;;;;;;;12.35;100.00;99686.09;5021998;28;19932;-81
2023/03/13 06:35:44;;;;;;;;;;;;;;;12.38;100.00;99688.47;5019924;28;20401;-81
2023/03/13 06:38:09;;;;;;;;;;;;;;;12.35;100.00;99700.41;5006852;28;20012;-79
2023/03/13 06:40:34;;;;;;;;;;;;;;;12.28;100.00;99689.47;4994334;28;20329;-80
2023/03/13 06:43:00;;;;;;;;;;;;;;;12.33;100.00;99675.50;5018016;28;20017;-78
2023/03/13 06:45:25;;;;;;;;;;;;;;;12.33;100.00;99678.19;4996209;28;20047;-79
2023/03/13 06:47:51;;;;;;;;;;;;;;;12.45;100.00;99684.16;5010390;28;19924;-79
2023/03/13 06:50:16;;;;;;;;;;;;;;;12.45;100.00;99686.84;4995574;28;19932;-81
2023/03/13 06:52:41;;;;;;;;;;;;;;;12.48;100.00;99683.84;4993765;28;19917;-78
2023/03/13 06:55:07;;;;;;;;;;;;;;;12.45;100.00;99686.84;5000911;28;19929;-77
2023/03/13 06:57:32;;;;;;;;;;;;;;;12.50;100.00;99680.97;5005303;28;20375;-79
2023/03/13 06:59:57;;;;;;;;;;;;;;;12.57;100.00;99695.50;4998497;28;19921;-80
2023/03/13 07:02:23;;;;;;;;;;;;;;;12.40;100.00;99651.47;4991295;28;20317;-77
2023/03/13 07:04:48;;;;;;;;;;;;;;;12.57;100.00;99682.03;5019079;28;20378;-83
2023/03/13 07:07:13;;;;;;;;;;;;;;;12.59;100.00;99683.53;4997508;28;21325;-81
2023/03/13 07:09:39;;;;;;;;;;;;;;;12.66;100.00;99681.06;5008467;28;19928;-79
2023/03/13 07:12:04;;;;;;;;;;;;;;;12.76;100.00;99672.84;5013412;28;19975;-82
2023/03/13 07:14:29;;;;;;;;;;;;;;;12.69;100.00;99687.97;4984999;28;19942;-78
2023/03/13 07:16:54;;;;;;;;;;;;;;;12.70;100.00;99679.75;4987484;28;19925;-79
2023/03/13 07:19:20;;;;;;;;;;;;;;;12.72;100.00;99666.94;4989132;28;19925;-80
2023/03/13 07:21:45;;;;;;;;;;;;;;;12.69;100.00;99682.59;4981998;28;19922;-81
2023/03/13 07:24:11;;;;;;;;;;;;;;;12.75;100.00;99677.38;4980776;28;20327;-75
2023/03/13 07:26:36;;;;;;;;;;;;;;;12.75;100.00;99679.25;4984288;28;19919;-78
2023/03/13 07:29:02;;;;;;;;;;;;;;;12.80;100.00;99676.06;4982792;28;20003;-78
2023/03/13 07:31:32;;;;;;;;;;;;;;;12.77;100.00;99676.38;4984083;28;19943;-78
2023/03/13 07:33:57;;;;;;;;;;;;;;;12.81;100.00;99666.97;4984974;28;20019;-78
2023/03/13 07:36:22;;;;;;;;;;;;;;;12.83;100.00;99687.38;4999480;28;19932;-79
2023/03/13 07:38:48;;;;;;;;;;;;;;;12.84;100.00;99678.28;4984880;28;19921;-80
2023/03/13 07:41:13;;;;;;;;;;;;;;;12.84;100.00;99680.97;5000564;28;19928;-79
2023/03/13 07:43:38;;;;;;;;;;;;;;;12.86;100.00;99676.25;4998696;28;19948;-81
2023/03/13 07:46:04;;;;;;;;;;;;;;;12.90;100.00;99685.69;5001930;28;20310;-81
2023/03/13 07:48:34;;;;;;;;;;;;;;;12.87;100.00;99682.50;4982558;28;19925;-80
2023/03/13 07:50:59;;;;;;;;;;;;;;;12.86;100.00;99676.25;5011928;28;19980;-80
2023/03/13 07:53:25;;;;;;;;;;;;;;;12.96;100.00;99677.97;5004657;28;19980;-82
2023/03/13 07:56:00;;;;;;;;;;;;;;;13.01;100.00;99678.31;5002543;28;19920;-81
2023/03/13 07:58:28;;;;;;;;;;;;;;;13.08;100.00;99670.41;4993157;28;19925;-80
2023/03/13 08:00:54;;;;;;;;;;;;;;;12.96;100.00;99681.53;5009178;28;19956;-80
2023/03/13 08:03:19;;;;;;;;;;;;;;;12.96;100.00;99680.66;4986274;28;20008;-83
2023/03/13 08:05:44;;;;;;;;;;;;;;;13.00;100.00;99671.25;4993780;28;20406;-77
2023/03/13 08:08:09;;;;;;;;;;;;;;;12.97;100.00;99680.50;5009474;28;20035;-80
2023/03/13 08:10:35;;;;;;;;;;;;;;;12.84;100.00;99643.25;5014050;28;20295;-80
2023/03/13 08:13:00;;;;;;;;;;;;;;;12.89;100.00;99689.38;5003345;28;19917;-82
2023/03/13 08:15:27;;;;;;;;;;;;;;;13.07;100.00;99683.06;5014627;28;19921;-78
2023/03/13 08:17:52;;;;;;;;;;;;;;;13.13;100.00;99671.59;5021342;28;20383;-81
2023/03/13 08:20:18;;;;;;;;;;;;;;;13.07;100.00;99683.06;5003543;28;20008;-80
2023/03/13 08:22:45;;;;;;;;;;;;;;;13.14;100.00;99661.69;5025821;28;19958;-83
2023/03/13 08:25:10;;;;;;;;;;;;;;;13.06;100.00;99673.28;4984787;28;20378;-80
2023/03/13 08:27:35;;;;;;;;;;;;;;;13.12;100.00;99669.09;5004102;28;19928;-82
2023/03/13 08:30:00;;;;;;;;;;;;;;;13.07;100.00;99674.97;5021066;28;20419;-84
2023/03/13 08:32:26;;;;;;;;;;;;;;;13.13;100.00;99660.81;5017492;28;20397;-82
2023/03/13 08:34:51;;;;;;;;;;;;;;;13.12;100.00;99658.31;5002542;28;20570;-83
2023/03/13 08:37:16;;;;;;;;;;;;;;;13.11;100.00;99660.16;4996908;28;19921;-83
2023/03/13 08:39:44;;;;;;;;;;;;;;;13.22;100.00;99668.94;4985078;28;19925;-82
2023/03/13 08:42:10;;;;;;;;;;;;;;;13.33;100.00;99661.38;5021981;28;19975;-78
2023/03/13 08:44:35;;;;;;;;;;;;;;;13.22;100.00;99660.84;4998527;28;19961;-83
2023/03/13 08:47:00;;;;;;;;;;;;;;;13.15;100.00;99657.97;5017461;28;20014;-77
2023/03/13 08:49:26;;;;;;;;;;;;;;;13.27;100.00;99650.41;5018693;28;20028;-82
2023/03/13 08:51:51;;;;;;;;;;;;;;;13.44;100.00;99654.00;5024515;28;20014;-79
2023/03/13 08:54:16;;;;;;;;;;;;;;;13.50;100.00;99659.56;5021155;28;20020;-79
2023/03/13 08:56:42;;;;;;;;;;;;;;;13.41;100.00;99648.94;5024293;28;19944;-76
2023/03/13 08:59:07;;;;;;;;;;;;;;;13.43;100.00;99645.06;5019240;28;19921;-80
2023/03/13 09:01:33;;;;;;;;;;;;;;;13.32;100.00;99665.06;5002914;28;19964;-80
2023/03/13 09:03:59;;;;;;;;;;;;;;;13.06;100.00;99676.00;5026965;28;19929;-77
2023/03/13 09:06:24;;;;;;;;;;;;;;;13.14;100.00;99675.16;5023418;28;20398;-79
2023/03/13 09:08:49;;;;;;;;;;;;;;;13.12;100.00;99666.38;5019043;28;19975;-80
2023/03/13 09:11:16;;;;;;;;;;;;;;;13.19;100.00;99665.56;4986664;28;19932;-82
2023/03/13 09:13:42;;;;;;;;;;;;;;;13.39;100.00;99645.56;5021793;28;19925;-79
2023/03/13 09:16:08;;;;;;;;;;;;;;;13.49;100.00;99635.47;5016676;28;20359;-79
2023/03/13 09:18:33;;;;;;;;;;;;;;;13.69;100.00;99619.78;5005620;28;19928;-79
2023/03/13 09:20:59;;;;;;;;;;;;;;;13.82;100.00;99621.97;4988407;28;20292;-78
2023/03/13 09:23:24;;;;;;;;;;;;;;;13.72;100.00;99610.53;5023961;28;19921;-80
2023/03/13 09:25:53;;;;;;;;;;;;;;;13.73;100.00;99602.25;5003281;28;19922;-77
2023/03/13 09:28:18;;;;;;;;;;;;;;;13.74;100.00;99601.25;5017496;28;20397;-79
2023/03/13 09:30:44;;;;;;;;;;;;;;;14.13;100.00;99617.72;5017133;28;19921;-77
2023/03/13 09:33:09;;;;;;;;;;;;;;;14.60;100.00;99586.28;5022148;28;20279;-81
2023/03/13 09:35:34;;;;;;;;;;;;;;;15.02;100.00;99585.06;4980651;28;19924;-77
2023/03/13 09:37:59;;;;;;;;;;;;;;;15.42;100.00;99615.53;4982749;28;19960;-79
2023/03/13 09:40:25;;;;;;;;;;;;;;;15.67;100.00;99585.53;5014480;28;20044;-77
2023/03/13 09:42:57;;;;;;;;;;;;;;;15.66;100.00;99566.81;5001291;28;19921;-78
2023/03/13 09:45:33;;;;;;;;;;;;;;;15.47;100.00;99576.28;5023633;28;19924;-78
2023/03/13 09:48:01;;;;;;;;;;;;;;;15.60;100.00;99562.97;5025618;28;19921;-79
2023/03/13 09:50:26;;;;;;;;;;;;;;;15.88;100.00;99575.94;4986463;28;19922;-78
2023/03/13 09:52:53;;;;;;;;;;;;;;;15.72;100.00;99556.06;4991321;28;20043;-76
2023/03/13 09:55:20;;;;;;;;;;;;;;;16.20;100.00;99549.50;5000040;28;19920;-80
2023/03/13 09:57:48;;;;;;;;;;;;;;;15.74;100.00;99555.91;5015095;28;19944;-76
2023/03/13 10:00:15;;;;;;;;;;;;;;;15.45;100.00;99580.00;5015526;28;20016;-78
2023/03/13 10:02:51;;;;;;;;;;;;;;;15.41;100.00;99548.09;4996057;28;20039;-79
2023/03/13 10:05:16;;;;;;;;;;;;;;;15.12;100.00;99537.00;5000244;28;20330;-78
2023/03/13 10:07:41;;;;;;;;;;;;;;;15.13;100.00;99554.06;5014996;28;19925;-77
2023/03/13 10:10:36;;;;;;;;;;;;;;;14.97;100.00;99561.28;4985587;28;20303;-79
2023/03/13 10:13:02;;;;;;;;;;;;;;;15.03;100.00;99540.81;4997159;28;19925;-79
2023/03/13 10:15:46;;;;;;;;;;;;;;;15.04;100.00;99558.72;5000642;28;19928;-80
2023/03/13 10:18:16;;;;;;;;;;;;;;;15.09;100.00;99567.13;5001143;28;19923;-76
2023/03/13 10:20:43;;;;;;;;;;;;;;;15.06;100.00;99559.38;5000907;28;19925;-78
2023/03/13 10:23:18;;;;;;;;;;;;;;;15.13;100.00;99554.06;5020295;28;19928;-77
2023/03/13 10:25:44;;;;;;;;;;;;;;;15.98;100.00;99527.75;4991153;28;19925;-81
2023/03/13 10:28:13;;;;;;;;;;;;;;;16.43;100.00;99545.81;5000010;28;20362;-77
2023/03/13 10:30:42;;;;;;;;;;;;;;;16.06;100.00;99542.22;5000093;28;20730;-81
2023/03/13 10:33:07;;;;;;;;;;;;;;;16.10;100.00;99528.13;4997389;28;19921;-78
2023/03/13 10:35:41;;;;;;;;;;;;;;;15.88;100.00;99524.50;5019618;28;19928;-81
2023/03/13 10:38:11;;;;;;;;;;;;;;;15.94;100.00;99529.16;5016362;28;19924;-81
2023/03/13 10:40:36;;;;;;;;;;;;;;;16.18;100.00;99519.91;5013698;28;19921;-76
2023/03/13 10:43:03;;;;;;;;;;;;;;;16.33;100.00;99535.28;5019314;28;20281;-78
2023/03/13 10:45:30;;;;;;;;;;;;;;;16.06;100.00;99524.09;5002478;28;19947;-78
2023/03/13 10:47:56;;;;;;;;;;;;;;;16.08;100.00;99511.22;5013210;28;19949;-76
2023/03/13 10:50:23;;;;;;;;;;;;;;;15.89;100.00;99505.34;5001222;28;19983;-76
2023/03/13 10:52:48;;;;;;;;;;;;;;;16.03;100.00;99516.34;5018697;28;20320;-78
2023/03/13 10:55:20;;;;;;;;;;;;;;;15.96;100.00;99501.91;5017471;28;19955;-80
2023/03/13 10:57:58;;;;;;;;;;;;;;;16.38;100.00;99505.75;5019591;28;19928;-79
2023/03/13 11:00:28;;;;;;;;;;;;;;;17.21;97.56;99491.84;4995734;28;20054;-80
2023/03/13 11:02:53;;;;;;;;;;;;;;;16.74;96.86;99510.34;5017719;28;19921;-76
2023/03/13 11:05:21;;;;;;;;;;;;;;;16.61;93.28;99504.75;5011884;28;19966;-81
2023/03/13 11:07:47;;;;;;;;;;;;;;;17.24;91.32;99494.13;5016584;28;20238;-80
2023/03/13 11:10:12;;;;;;;;;;;;;;;16.64;92.71;99482.69;4990024;28;19923;-77
2023/03/13 11:12:38;;;;;;;;;;;;;;;16.53;93.18;99505.72;5022325;28;19917;-77
2023/03/13 11:15:05;;;;;;;;;;;;;;;16.78;95.96;99484.53;4987132;28;19925;-81
2023/03/13 11:17:38;;;;;;;;;;;;;;;16.93;92.92;99478.19;4980979;28;20036;-79
2023/03/13 11:20:06;;;;;;;;;;;;;;;16.58;97.60;99487.03;4985787;28;19957;-75
2023/03/13 11:22:41;;;;;;;;;;;;;;;16.13;100.00;99462.75;5004482;28;19921;-81
2023/03/13 11:25:15;;;;;;;;;;;;;;;16.20;100.00;99492.63;5015035;28;19925;-80
2023/03/13 11:27:40;;;;;;;;;;;;;;;16.24;99.81;99474.97;5000923;28;20397;-80
2023/03/13 11:30:08;;;;;;;;;;;;;;;16.31;100.00;99480.47;4995349;28;20012;-80
2023/03/13 11:32:37;;;;;;;;;;;;;;;16.53;97.09;99481.34;5005338;28;20384;-78
2023/03/13 11:35:04;;;;;;;;;;;;;;;17.26;90.90;99485.81;4984736;28;19932;-78
2023/03/13 11:37:30;;;;;;;;;;;;;;;17.21;87.75;99466.56;5006389;28;20569;-78
2023/03/13 11:40:04;;;;;;;;;;;;;;;16.55;92.12;99481.16;4988123;28;19963;-75
2023/03/13 11:42:42;;;;;;;;;;;;;;;16.29;93.45;99459.00;4998161;28;19925;-78
2023/03/13 11:45:26;;;;;;;;;;;;;;;16.41;88.95;99451.22;5001021;28;19960;-79
2023/03/13 11:47:51;;;;;;;;;;;;;;;16.32;89.12;99458.63;4999486;28;19921;-78
2023/03/13 11:50:23;;;;;;;;;;;;;;;16.04;89.47;99467.44;5012083;28;20410;-77
2023/03/13 11:52:57;;;;;;;;;;;;;;;16.12;91.16;99461.09;5002694;28;19921;-78
2023/03/13 11:55:32;;;;;;;;;;;;;;;17.86;84.17;99458.22;4998241;28;19972;-79
2023/03/13 11:58:00;;;;;;;;;;;;;;;18.41;70.89;99443.81;4989857;28;19920;-79
2023/03/13 12:00:38;;;;;;;;;;;;;;;17.72;69.08;99426.59;5019346;28;20444;-78
2023/03/13 12:03:32;;;;;;;;;;;;;;;18.71;66.82;99421.69;5000972;28;20410;-77
2023/03/13 12:05:59;;;;;;;;;;;;;;;18.88;64.57;99438.44;4998715;28;19921;-78
2023/03/13 12:08:26;;;;;;;;;;;;;;;18.42;64.48;99426.47;5001848;28;20011;-78
2023/03/13 12:10:58;;;;;;;;;;;;;;;18.06;65.97;99405.91;4984303;28;19991;-79
2023/03/13 12:13:42;;;;;;;;;;;;;;;18.26;65.74;99405.97;4984717;28;19933;-79
2023/03/13 12:16:21;;;;;;;;;;;;;;;18.82;61.77;99398.50;5021636;28;19921;-78
2023/03/13 12:18:46;;;;;;;;;;;;;;;19.05;59.29;99392.66;5001862;28;20367;-78
2023/03/13 12:21:11;;;;;;;;;;;;;;;19.65;59.11;99397.16;4983505;28;19936;-79
2023/03/13 12:23:36;;;;;;;;;;;;;;;19.01;60.36;99394.13;5016746;28;19921;-74
2023/03/13 12:26:03;;;;;;;;;;;;;;;19.16;56.84;99369.41;5013639;28;19967;-77
2023/03/13 12:28:36;;;;;;;;;;;;;;;19.69;58.05;99368.44;4997263;28;20028;-77
2023/03/13 12:31:11;;;;;;;;;;;;;;;19.16;56.98;99375.72;4998973;28;19921;-76
2023/03/13 12:33:43;;;;;;;;;;;;;;;19.27;57.51;99378.81;4997952;28;20370;-77
2023/03/13 12:36:11;;;;;;;;;;;;;;;19.10;59.47;99372.97;5020746;28;20295;-76